Time;durP1;ratioP1;P1;durP2;ratioP2;P2;SDS_P1;SDS_P2;PMS_P1;PMS_P2;Temp;Humidity;BMP_temperature;BMP_pressure;BME280_temperature;BME280_humidity;BME280_pressure;Samples;Min_cycle;Max_cycle;Signal;HPM_P1;HPM_P2
2023/04/06 00:01:01;;;;;;;;;;;5.10;95.00;;;;;;5034497;28;19920;-67
2023/04/06 00:03:26;;;;;;;;;;;5.20;94.90;;;;;;5033045;28;20026;-68
2023/04/06 00:05:52;;;;;;;;;;;5.20;94.80;;;;;;5017143;28;20003;-68
2023/04/06 00:08:17;;;;;;;;;;;5.20;94.80;;;;;;5019208;28;19945;-68
2023/04/06 00:10:43;;;;;;;;;;;5.20;94.50;;;;;;5036712;28;19905;-68
2023/04/06 00:13:08;;;;;;;;;;;5.20;94.50;;;;;;5036648;28;20366;-68
2023/04/06 00:15:34;;;;;;;;;;;5.20;94.60;;;;;;5036618;28;19996;-68
2023/04/06 00:18:00;;;;;;;;;;;5.10;94.60;;;;;;5024139;28;20376;-68
2023/04/06 00:20:25;;;;;;;;;;;5.10;95.20;;;;;;5038646;28;19905;-68
2023/04/06 00:22:51;;;;;;;;;;;5.10;96.00;;;;;;5020809;28;19912;-68
2023/04/06 00:25:16;;;;;;;;;;;5.00;96.20;;;;;;5039445;28;19909;-68
2023/04/06 00:27:42;;;;;;;;;;;5.10;96.30;;;;;;5037319;28;19939;-68
2023/04/06 00:30:07;;;;;;;;;;;5.00;96.30;;;;;;5037525;28;19959;-68
2023/04/06 00:32:34;;;;;;;;;;;5.00;96.40;;;;;;5019065;28;19905;-68
2023/04/06 00:34:59;;;;;;;;;;;5.00;96.30;;;;;;5036069;28;19951;-68
2023/04/06 00:37:25;;;;;;;;;;;4.90;96.50;;;;;;5038013;28;20001;-68
2023/04/06 00:39:54;;;;;;;;;;;4.90;96.70;;;;;;5024886;28;19940;-68
2023/04/06 00:42:25;;;;;;;;;;;4.90;96.90;;;;;;5039759;28;19905;-68
2023/04/06 00:45:00;;;;;;;;;;;4.80;97.30;;;;;;5041900;28;19948;-67
2023/04/06 00:47:25;;;;;;;;;;;4.80;97.40;;;;;;5036833;28;19909;-68
2023/04/06 00:49:51;;;;;;;;;;;4.80;97.50;;;;;;5018731;28;19954;-67
2023/04/06 00:52:17;;;;;;;;;;;4.60;97.20;;;;;;5018604;28;19948;-68
2023/04/06 00:54:43;;;;;;;;;;;4.50;97.30;;;;;;5036697;28;19905;-67
2023/04/06 00:57:08;;;;;;;;;;;4.30;97.70;;;;;;5035916;28;19995;-67
2023/04/06 00:59:34;;;;;;;;;;;4.30;97.70;;;;;;5018176;28;20277;-67
2023/04/06 01:01:59;;;;;;;;;;;4.20;98.40;;;;;;5035757;28;20297;-67
2023/04/06 01:04:26;;;;;;;;;;;4.30;98.70;;;;;;5035625;28;19913;-70
2023/04/06 01:06:51;;;;;;;;;;;4.20;99.50;;;;;;5036479;28;19917;-68
2023/04/06 01:09:17;;;;;;;;;;;4.20;99.90;;;;;;5037720;28;19913;-69
2023/04/06 01:11:43;;;;;;;;;;;4.10;99.90;;;;;;5035714;28;20358;-70
2023/04/06 01:14:08;;;;;;;;;;;4.00;99.90;;;;;;5035554;28;19939;-69
2023/04/06 01:16:34;;;;;;;;;;;4.00;99.90;;;;;;5035165;28;20323;-69
2023/04/06 01:18:59;;;;;;;;;;;3.80;99.90;;;;;;5017426;28;19975;-69
2023/04/06 01:21:25;;;;;;;;;;;3.80;99.90;;;;;;5035625;28;19905;-69
2023/04/06 01:23:51;;;;;;;;;;;3.80;99.90;;;;;;5035801;28;19939;-69
2023/04/06 01:26:16;;;;;;;;;;;3.70;99.90;;;;;;5017638;28;19992;-69
2023/04/06 01:28:42;;;;;;;;;;;3.70;99.90;;;;;;5036824;28;20338;-69
2023/04/06 01:31:08;;;;;;;;;;;3.80;99.90;;;;;;5018466;28;19928;-70
2023/04/06 01:33:33;;;;;;;;;;;3.80;99.90;;;;;;5016745;28;19909;-70
2023/04/06 01:36:00;;;;;;;;;;;3.70;99.90;;;;;;5015219;28;20048;-70
2023/04/06 01:38:26;;;;;;;;;;;3.80;99.90;;;;;;5015704;28;20285;-70
2023/04/06 01:40:52;;;;;;;;;;;3.80;99.90;;;;;;5015943;28;20289;-70
2023/04/06 01:43:17;;;;;;;;;;;3.80;99.90;;;;;;5015491;28;19910;-70
2023/04/06 01:45:43;;;;;;;;;;;3.80;99.90;;;;;;5016838;28;20282;-70
2023/04/06 01:48:08;;;;;;;;;;;3.80;99.90;;;;;;5027667;28;19905;-69
2023/04/06 01:50:33;;;;;;;;;;;3.80;99.90;;;;;;5018387;28;20282;-70
2023/04/06 01:52:59;;;;;;;;;;;3.70;99.90;;;;;;5017275;28;19913;-70
2023/04/06 01:55:25;;;;;;;;;;;3.70;99.90;;;;;;5016922;28;19909;-69
2023/04/06 01:57:50;;;;;;;;;;;3.70;99.90;;;;;;5024660;28;19912;-69
2023/04/06 02:00:16;;;;;;;;;;;3.60;99.90;;;;;;5013672;28;19949;-69
2023/04/06 02:02:41;;;;;;;;;;;3.70;99.90;;;;;;5014915;28;19992;-69
2023/04/06 02:05:07;;;;;;;;;;;3.70;99.90;;;;;;5014319;28;20287;-69
2023/04/06 02:07:33;;;;;;;;;;;3.70;99.90;;;;;;5013875;28;19905;-69
2023/04/06 02:09:58;;;;;;;;;;;3.70;99.90;;;;;;5015661;28;19905;-69
2023/04/06 02:12:24;;;;;;;;;;;3.80;99.90;;;;;;4997199;28;20354;-69
2023/04/06 02:14:49;;;;;;;;;;;3.80;99.90;;;;;;5015142;28;19912;-69
2023/04/06 02:17:15;;;;;;;;;;;3.80;99.90;;;;;;5019958;28;20000;-69
2023/04/06 02:19:40;;;;;;;;;;;3.80;99.90;;;;;;5034125;28;20332;-69
2023/04/06 02:22:06;;;;;;;;;;;3.80;99.90;;;;;;5018516;28;19905;-69
2023/04/06 02:24:32;;;;;;;;;;;3.80;99.90;;;;;;5035302;28;19916;-69
2023/04/06 02:26:57;;;;;;;;;;;3.80;99.90;;;;;;5017184;28;19912;-70
2023/04/06 02:29:23;;;;;;;;;;;3.90;99.90;;;;;;5017383;28;19960;-70
2023/04/06 02:31:48;;;;;;;;;;;4.00;99.90;;;;;;5035061;28;20357;-70
2023/04/06 02:34:17;;;;;;;;;;;4.00;99.90;;;;;;5015908;28;19905;-69
2023/04/06 02:36:43;;;;;;;;;;;3.90;99.90;;;;;;5034946;28;19905;-69
2023/04/06 02:39:09;;;;;;;;;;;3.80;99.90;;;;;;5038332;28;19975;-70
2023/04/06 02:41:35;;;;;;;;;;;3.80;99.90;;;;;;5018582;28;19916;-69
2023/04/06 02:44:00;;;;;;;;;;;4.00;99.90;;;;;;5039023;28;19905;-70
2023/04/06 02:46:26;;;;;;;;;;;4.00;99.90;;;;;;5041356;28;19905;-70
2023/04/06 02:48:51;;;;;;;;;;;3.90;99.90;;;;;;5040535;28;19912;-70
2023/04/06 02:51:17;;;;;;;;;;;3.90;99.90;;;;;;5014413;28;19913;-70
2023/04/06 02:53:42;;;;;;;;;;;4.10;99.90;;;;;;5031273;28;19999;-70
2023/04/06 02:56:08;;;;;;;;;;;4.00;99.90;;;;;;5039108;28;19909;-70
2023/04/06 02:58:33;;;;;;;;;;;4.10;99.90;;;;;;5039240;28;19905;-70
2023/04/06 03:00:59;;;;;;;;;;;3.90;99.90;;;;;;5023408;28;19993;-70
2023/04/06 03:03:24;;;;;;;;;;;3.60;99.90;;;;;;5020596;28;19968;-69
2023/04/06 03:05:49;;;;;;;;;;;3.50;99.90;;;;;;5019184;28;19914;-70
2023/04/06 03:08:15;;;;;;;;;;;3.30;99.90;;;;;;5016378;28;19905;-71
2023/04/06 03:10:41;;;;;;;;;;;3.30;99.90;;;;;;5020293;28;19971;-71
2023/04/06 03:13:06;;;;;;;;;;;3.30;99.90;;;;;;5020165;28;19905;-70
2023/04/06 03:15:32;;;;;;;;;;;3.20;99.90;;;;;;5016849;28;19956;-70
2023/04/06 03:17:57;;;;;;;;;;;3.20;99.90;;;;;;5016156;28;19957;-70
2023/04/06 03:20:23;;;;;;;;;;;2.90;99.90;;;;;;5014700;28;20370;-70
2023/04/06 03:22:48;;;;;;;;;;;3.00;99.90;;;;;;5016248;28;19971;-70
2023/04/06 03:25:14;;;;;;;;;;;2.90;99.90;;;;;;5014668;28;19909;-70
2023/04/06 03:27:40;;;;;;;;;;;2.80;99.90;;;;;;4996844;28;19906;-70
2023/04/06 03:30:06;;;;;;;;;;;2.90;99.90;;;;;;5014636;28;20358;-70
2023/04/06 03:32:31;;;;;;;;;;;3.00;99.90;;;;;;5014786;28;19927;-70
2023/04/06 03:34:57;;;;;;;;;;;2.90;99.90;;;;;;5015409;28;19913;-70
2023/04/06 03:37:22;;;;;;;;;;;2.90;99.90;;;;;;5019055;28;19910;-70
2023/04/06 03:39:48;;;;;;;;;;;3.00;99.90;;;;;;5012291;28;19913;-69
2023/04/06 03:42:15;;;;;;;;;;;3.10;99.90;;;;;;5020568;28;19928;-69
2023/04/06 03:44:41;;;;;;;;;;;3.00;99.90;;;;;;5035761;28;20020;-69
2023/04/06 03:47:06;;;;;;;;;;;3.00;99.90;;;;;;5019881;28;19948;-69
2023/04/06 03:49:31;;;;;;;;;;;3.00;99.90;;;;;;5037002;28;20317;-69
2023/04/06 03:51:57;;;;;;;;;;;3.00;99.90;;;;;;5037164;28;19976;-69
2023/04/06 03:54:22;;;;;;;;;;;3.00;99.90;;;;;;5037374;28;19905;-68
2023/04/06 03:56:48;;;;;;;;;;;2.90;99.90;;;;;;5020048;28;20255;-68
2023/04/06 03:59:13;;;;;;;;;;;2.90;99.90;;;;;;5037572;28;20000;-68
2023/04/06 04:01:39;;;;;;;;;;;2.90;99.90;;;;;;5037240;28;20317;-68
2023/04/06 04:04:04;;;;;;;;;;;2.90;99.90;;;;;;5037053;28;19916;-68
2023/04/06 04:06:30;;;;;;;;;;;3.00;99.90;;;;;;5018782;28;19924;-68
2023/04/06 04:08:55;;;;;;;;;;;3.00;99.90;;;;;;5019326;28;19905;-68
2023/04/06 04:11:21;;;;;;;;;;;2.90;99.90;;;;;;5018879;28;19909;-68
2023/04/06 04:13:47;;;;;;;;;;;3.00;99.90;;;;;;5037062;28;19944;-68
2023/04/06 04:16:12;;;;;;;;;;;3.10;99.90;;;;;;5036974;28;20004;-68
2023/04/06 04:18:37;;;;;;;;;;;3.10;99.90;;;;;;5036306;28;20262;-69
2023/04/06 04:21:03;;;;;;;;;;;3.10;99.90;;;;;;5037149;28;19906;-68
2023/04/06 04:23:28;;;;;;;;;;;3.10;99.90;;;;;;5036667;28;20003;-68
2023/04/06 04:25:57;;;;;;;;;;;3.10;99.90;;;;;;5036407;28;19909;-68
2023/04/06 04:28:24;;;;;;;;;;;3.10;99.90;;;;;;5036339;28;19905;-68
2023/04/06 04:30:50;;;;;;;;;;;3.10;99.90;;;;;;5018828;28;19905;-68
2023/04/06 04:33:15;;;;;;;;;;;3.00;99.90;;;;;;5036416;28;19966;-68
2023/04/06 04:35:41;;;;;;;;;;;3.00;99.90;;;;;;5036056;28;19915;-68
2023/04/06 04:38:06;;;;;;;;;;;3.00;99.90;;;;;;5032776;28;19937;-68
2023/04/06 04:40:32;;;;;;;;;;;3.10;99.90;;;;;;5015611;28;19924;-68
2023/04/06 04:42:57;;;;;;;;;;;3.10;99.90;;;;;;5016429;28;20373;-69
2023/04/06 04:45:23;;;;;;;;;;;3.10;99.90;;;;;;5016953;28;19913;-68
2023/04/06 04:47:48;;;;;;;;;;;3.10;99.90;;;;;;5024452;28;19911;-69
2023/04/06 04:50:14;;;;;;;;;;;3.00;99.90;;;;;;5030879;28;19909;-69
2023/04/06 04:52:39;;;;;;;;;;;2.90;99.90;;;;;;5034952;28;19905;-68
2023/04/06 04:55:05;;;;;;;;;;;3.00;99.90;;;;;;5035175;28;19999;-68
2023/04/06 04:57:30;;;;;;;;;;;3.10;99.90;;;;;;5014192;28;19905;-68
2023/04/06 04:59:57;;;;;;;;;;;3.20;99.90;;;;;;5016552;28;19905;-68
2023/04/06 05:02:22;;;;;;;;;;;3.10;99.90;;;;;;5016622;28;19905;-68
2023/04/06 05:04:47;;;;;;;;;;;3.10;99.90;;;;;;5015403;28;20139;-68
2023/04/06 05:07:15;;;;;;;;;;;3.10;99.90;;;;;;5014649;28;20370;-68
2023/04/06 05:09:40;;;;;;;;;;;3.20;99.90;;;;;;5015032;28;19905;-69
2023/04/06 05:12:06;;;;;;;;;;;3.30;99.90;;;;;;5015281;28;19912;-69
2023/04/06 05:14:32;;;;;;;;;;;3.30;99.90;;;;;;5026857;28;19905;-68
2023/04/06 05:16:57;;;;;;;;;;;3.30;99.90;;;;;;5017000;28;20405;-69
2023/04/06 05:19:23;;;;;;;;;;;3.20;99.90;;;;;;5036020;28;19909;-68
2023/04/06 05:21:49;;;;;;;;;;;3.20;99.90;;;;;;5017170;28;19905;-68
2023/04/06 05:24:14;;;;;;;;;;;3.30;99.90;;;;;;5009104;28;19913;-68
2023/04/06 05:26:40;;;;;;;;;;;3.20;99.90;;;;;;5015786;28;19974;-69
2023/04/06 05:29:05;;;;;;;;;;;3.10;99.90;;;;;;4998038;28;19905;-68
2023/04/06 05:31:31;;;;;;;;;;;3.10;99.90;;;;;;5012098;28;19905;-68
2023/04/06 05:33:56;;;;;;;;;;;3.10;99.90;;;;;;4996781;28;20381;-67
2023/04/06 05:36:22;;;;;;;;;;;3.10;99.90;;;;;;4997667;28;19905;-68
2023/04/06 05:38:47;;;;;;;;;;;3.00;99.90;;;;;;5016251;28;19910;-70
2023/04/06 05:41:13;;;;;;;;;;;3.10;99.90;;;;;;4997642;28;19906;-69
2023/04/06 05:43:38;;;;;;;;;;;3.10;99.90;;;;;;5015224;28;19905;-70
2023/04/06 05:46:04;;;;;;;;;;;3.10;99.90;;;;;;4999274;28;19918;-68
2023/04/06 05:48:29;;;;;;;;;;;3.10;99.90;;;;;;5015212;28;20325;-70
2023/04/06 05:50:55;;;;;;;;;;;3.10;99.90;;;;;;4998166;28;19949;-70
2023/04/06 05:53:26;;;;;;;;;;;3.10;99.90;;;;;;5014628;28;19945;-69
2023/04/06 05:55:52;;;;;;;;;;;3.00;99.90;;;;;;4996072;28;19906;-68
2023/04/06 05:58:18;;;;;;;;;;;3.00;99.90;;;;;;4996892;28;19976;-70
2023/04/06 06:00:45;;;;;;;;;;;3.00;99.90;;;;;;5014234;28;20397;-70
2023/04/06 06:03:11;;;;;;;;;;;3.00;99.90;;;;;;5013141;28;20297;-71
2023/04/06 06:05:37;;;;;;;;;;;3.10;99.90;;;;;;5013618;28;19913;-70
2023/04/06 06:08:02;;;;;;;;;;;3.10;99.90;;;;;;5016014;28;19925;-71
2023/04/06 06:10:28;;;;;;;;;;;3.10;99.90;;;;;;5017411;28;19916;-71
2023/04/06 06:12:53;;;;;;;;;;;3.10;99.90;;;;;;4998726;28;19905;-71
2023/04/06 06:15:19;;;;;;;;;;;3.10;99.90;;;;;;5014682;28;19912;-71
2023/04/06 06:17:44;;;;;;;;;;;3.20;99.90;;;;;;4997431;28;19912;-70
2023/04/06 06:20:10;;;;;;;;;;;3.20;99.90;;;;;;5020402;28;19934;-71
2023/04/06 06:22:36;;;;;;;;;;;3.30;99.90;;;;;;5042762;28;19905;-72
2023/04/06 06:25:02;;;;;;;;;;;3.20;99.90;;;;;;5038630;28;19939;-72
2023/04/06 06:27:27;;;;;;;;;;;3.30;99.90;;;;;;5035654;28;19909;-71
2023/04/06 06:29:53;;;;;;;;;;;3.50;99.90;;;;;;5035235;28;19905;-72
2023/04/06 06:32:18;;;;;;;;;;;3.60;99.90;;;;;;5034665;28;19913;-72
2023/04/06 06:34:44;;;;;;;;;;;3.50;99.90;;;;;;5034485;28;19912;-71
2023/04/06 06:37:09;;;;;;;;;;;3.40;99.90;;;;;;5034767;28;20381;-73
2023/04/06 06:39:35;;;;;;;;;;;3.60;99.90;;;;;;5034974;28;19905;-71
2023/04/06 06:42:01;;;;;;;;;;;3.80;99.90;;;;;;5017117;28;20341;-71
2023/04/06 06:44:26;;;;;;;;;;;3.70;99.90;;;;;;5034521;28;19909;-71
2023/04/06 06:46:52;;;;;;;;;;;3.60;99.90;;;;;;5019641;28;19905;-71
2023/04/06 06:49:18;;;;;;;;;;;3.70;99.90;;;;;;5034701;28;19936;-71
2023/04/06 06:51:44;;;;;;;;;;;3.60;99.90;;;;;;5017341;28;19947;-70
2023/04/06 06:54:09;;;;;;;;;;;3.60;99.90;;;;;;5034942;28;19905;-70
2023/04/06 06:56:37;;;;;;;;;;;3.80;99.90;;;;;;5034494;28;20004;-71
2023/04/06 06:59:02;;;;;;;;;;;3.80;99.90;;;;;;5035552;28;19919;-70
2023/04/06 07:01:27;;;;;;;;;;;4.00;99.90;;;;;;5035561;28;19924;-70
2023/04/06 07:03:53;;;;;;;;;;;4.30;99.90;;;;;;5036935;28;19909;-71
2023/04/06 07:06:18;;;;;;;;;;;4.40;99.90;;;;;;5059507;23;19917;-68
2023/04/06 07:08:44;;;;;;;;;;;4.50;99.90;;;;;;5025831;28;19940;-67
2023/04/06 07:11:09;;;;;;;;;;;4.70;99.90;;;;;;5026123;28;19905;-67
2023/04/06 07:13:35;;;;;;;;;;;4.80;99.90;;;;;;5033180;28;19913;-67
2023/04/06 07:16:00;;;;;;;;;;;4.80;99.90;;;;;;5018047;28;19905;-67
2023/04/06 07:18:26;;;;;;;;;;;5.00;99.90;;;;;;5024815;28;19958;-67
2023/04/06 07:20:51;;;;;;;;;;;5.00;99.90;;;;;;5031738;28;19932;-68
2023/04/06 07:23:17;;;;;;;;;;;4.90;99.90;;;;;;5033560;28;19913;-67
2023/04/06 07:25:42;;;;;;;;;;;4.90;99.90;;;;;;5027559;28;19913;-68
2023/04/06 07:28:08;;;;;;;;;;;5.10;99.90;;;;;;5005720;28;19928;-67
2023/04/06 07:30:33;;;;;;;;;;;5.30;99.90;;;;;;5008032;28;19905;-67
2023/04/06 07:32:59;;;;;;;;;;;5.40;99.90;;;;;;5008617;28;20333;-66
2023/04/06 07:35:26;;;;;;;;;;;5.20;99.90;;;;;;4996561;28;20226;-64
2023/04/06 07:37:51;;;;;;;;;;;5.20;99.90;;;;;;5020444;28;19955;-65
2023/04/06 07:40:17;;;;;;;;;;;5.40;99.90;;;;;;5016640;28;19905;-63
2023/04/06 07:42:43;;;;;;;;;;;5.60;99.90;;;;;;5016368;28;19959;-63
2023/04/06 07:45:09;;;;;;;;;;;5.50;99.80;;;;;;5019587;28;19940;-64
2023/04/06 07:47:34;;;;;;;;;;;5.50;99.90;;;;;;5013929;28;19905;-64
2023/04/06 07:50:00;;;;;;;;;;;5.60;99.70;;;;;;5014116;28;19956;-65
2023/04/06 07:52:25;;;;;;;;;;;5.80;99.70;;;;;;5013769;28;20349;-63
2023/04/06 07:54:51;;;;;;;;;;;5.80;99.00;;;;;;5013274;28;19913;-65
2023/04/06 07:57:16;;;;;;;;;;;5.80;99.10;;;;;;4995858;28;20356;-65
2023/04/06 07:59:42;;;;;;;;;;;5.90;98.90;;;;;;5013813;28;19905;-63
2023/04/06 08:02:07;;;;;;;;;;;6.20;98.60;;;;;;5013618;28;19913;-62
2023/04/06 08:04:33;;;;;;;;;;;6.20;98.70;;;;;;5014013;28;19940;-64
2023/04/06 08:06:58;;;;;;;;;;;6.40;98.70;;;;;;5014179;28;20008;-64
2023/04/06 08:09:24;;;;;;;;;;;6.50;98.70;;;;;;5013723;28;19905;-63
2023/04/06 08:11:49;;;;;;;;;;;6.90;98.20;;;;;;4995937;28;20008;-62
2023/04/06 08:14:15;;;;;;;;;;;7.00;97.90;;;;;;5014202;28;19929;-65
2023/04/06 08:16:41;;;;;;;;;;;7.10;97.90;;;;;;5013597;28;19915;-65
2023/04/06 08:19:09;;;;;;;;;;;7.10;97.70;;;;;;4996150;28;19910;-63
2023/04/06 08:21:37;;;;;;;;;;;7.30;97.40;;;;;;4995907;28;19906;-63
2023/04/06 08:24:03;;;;;;;;;;;7.40;97.20;;;;;;5013222;28;19913;-63
2023/04/06 08:26:28;;;;;;;;;;;7.40;97.10;;;;;;5013397;28;19906;-63
2023/04/06 08:28:54;;;;;;;;;;;7.60;96.90;;;;;;5018573;28;19909;-65
2023/04/06 08:31:20;;;;;;;;;;;7.70;96.50;;;;;;5026061;28;19905;-64
2023/04/06 08:33:45;;;;;;;;;;;7.60;95.20;;;;;;5000178;28;20354;-64
2023/04/06 08:36:12;;;;;;;;;;;7.60;95.30;;;;;;5017727;28;19906;-65
2023/04/06 08:38:37;;;;;;;;;;;7.60;94.90;;;;;;5018240;28;20346;-65
2023/04/06 08:41:13;;;;;;;;;;;7.60;94.60;;;;;;5017807;28;19925;-64
2023/04/06 08:43:43;;;;;;;;;;;7.60;95.10;;;;;;5017544;28;20349;-64
2023/04/06 08:46:10;;;;;;;;;;;7.80;94.70;;;;;;5017392;28;19909;-65
2023/04/06 08:48:36;;;;;;;;;;;8.10;94.70;;;;;;5017260;28;20374;-64
2023/04/06 08:51:02;;;;;;;;;;;8.80;93.80;;;;;;4999397;28;20013;-65
2023/04/06 08:53:27;;;;;;;;;;;10.80;91.70;;;;;;5016903;28;20007;-65
2023/04/06 08:55:54;;;;;;;;;;;13.50;84.20;;;;;;5016502;28;19949;-65
2023/04/06 08:58:21;;;;;;;;;;;16.90;74.10;;;;;;5016620;28;19905;-65
2023/04/06 09:00:46;;;;;;;;;;;17.70;65.80;;;;;;5017233;28;19956;-66
2023/04/06 09:03:12;;;;;;;;;;;18.10;64.90;;;;;;5016951;28;19905;-64
2023/04/06 09:05:38;;;;;;;;;;;17.30;63.70;;;;;;4999215;28;19914;-65
2023/04/06 09:08:04;;;;;;;;;;;19.30;62.00;;;;;;4998685;28;20377;-65
2023/04/06 09:10:29;;;;;;;;;;;20.70;57.70;;;;;;5016211;28;19928;-65
2023/04/06 09:13:05;;;;;;;;;;;19.40;58.50;;;;;;4998545;28;20261;-65
2023/04/06 09:15:30;;;;;;;;;;;21.10;56.90;;;;;;5016641;28;20277;-65
2023/04/06 09:17:55;;;;;;;;;;;22.90;53.50;;;;;;5016255;28;20024;-65
2023/04/06 09:20:26;;;;;;;;;;;23.10;52.20;;;;;;4998820;28;19944;-65
2023/04/06 09:22:52;;;;;;;;;;;24.10;50.90;;;;;;5016538;28;19912;-65
2023/04/06 09:25:22;;;;;;;;;;;24.80;49.50;;;;;;5016354;28;20389;-65
2023/04/06 09:27:49;;;;;;;;;;;25.50;48.40;;;;;;5016295;28;19917;-64
2023/04/06 09:30:16;;;;;;;;;;;25.90;47.90;;;;;;5016782;28;20003;-65
2023/04/06 09:32:46;;;;;;;;;;;26.70;46.30;;;;;;5016406;28;19913;-66
2023/04/06 09:35:12;;;;;;;;;;;26.90;45.70;;;;;;5015703;28;19905;-65
2023/04/06 09:37:37;;;;;;;;;;;25.50;45.90;;;;;;5016211;28;19916;-66
2023/04/06 09:40:07;;;;;;;;;;;26.00;46.30;;;;;;5015173;28;20005;-65
2023/04/06 09:42:32;;;;;;;;;;;26.30;45.90;;;;;;5015296;28;19905;-64
2023/04/06 09:44:58;;;;;;;;;;;26.90;45.20;;;;;;5015222;28;19958;-65
2023/04/06 09:47:24;;;;;;;;;;;27.20;44.90;;;;;;5015497;28;19996;-65
2023/04/06 09:49:50;;;;;;;;;;;26.60;44.90;;;;;;5015487;28;19912;-66
2023/04/06 09:52:16;;;;;;;;;;;27.00;45.00;;;;;;4997789;28;19906;-65
2023/04/06 09:54:42;;;;;;;;;;;26.80;44.90;;;;;;5015823;28;20354;-66
2023/04/06 09:57:21;;;;;;;;;;;26.80;44.70;;;;;;5015668;28;19909;-68
2023/04/06 10:00:03;;;;;;;;;;;25.90;44.90;;;;;;5016969;28;19956;-63
2023/04/06 10:02:39;;;;;;;;;;;26.40;45.60;;;;;;5015163;28;19916;-64
2023/04/06 10:05:04;;;;;;;;;;;27.20;44.90;;;;;;5014988;28;19916;-64
2023/04/06 10:07:31;;;;;;;;;;;27.40;44.30;;;;;;5014736;28;19914;-64
2023/04/06 10:09:58;;;;;;;;;;;26.40;43.50;;;;;;5014707;28;19992;-64
2023/04/06 10:12:23;;;;;;;;;;;25.80;44.80;;;;;;5014737;28;19973;-64
2023/04/06 10:14:49;;;;;;;;;;;26.40;44.00;;;;;;5015010;28;20358;-64
2023/04/06 10:17:14;;;;;;;;;;;26.80;43.80;;;;;;5013943;28;19959;-64
2023/04/06 10:19:49;;;;;;;;;;;27.00;43.10;;;;;;5014471;28;20251;-65
2023/04/06 10:22:22;;;;;;;;;;;26.90;42.60;;;;;;5014735;28;19928;-64
2023/04/06 10:24:48;;;;;;;;;;;27.10;42.50;;;;;;5014871;28;19920;-62
2023/04/06 10:27:13;;;;;;;;;;;26.50;42.60;;;;;;4997234;28;19909;-64
2023/04/06 10:29:43;;;;;;;;;;;26.50;42.60;;;;;;4997015;28;19971;-64
2023/04/06 10:32:08;;;;;;;;;;;26.70;41.80;;;;;;5014122;28;19916;-61
2023/04/06 10:34:35;;;;;;;;;;;26.00;41.60;;;;;;4997195;28;19913;-63
2023/04/06 10:37:10;;;;;;;;;;;26.10;42.00;;;;;;5014701;28;19912;-64
2023/04/06 10:39:45;;;;;;;;;;;26.10;42.00;;;;;;5015519;28;19906;-64
2023/04/06 10:42:10;;;;;;;;;;;26.20;42.30;;;;;;4997621;28;20409;-65
2023/04/06 10:44:42;;;;;;;;;;;26.80;41.80;;;;;;5013721;28;19948;-62
2023/04/06 10:47:15;;;;;;;;;;;27.70;41.00;;;;;;5014765;28;19905;-63
2023/04/06 10:49:40;;;;;;;;;;;27.80;40.90;;;;;;5017324;28;19928;-63
2023/04/06 10:52:06;;;;;;;;;;;27.40;41.40;;;;;;5019246;28;19905;-64
2023/04/06 10:54:32;;;;;;;;;;;27.80;40.70;;;;;;5014781;28;19996;-65
2023/04/06 10:56:58;;;;;;;;;;;27.90;40.00;;;;;;4997057;28;19909;-63
2023/04/06 10:59:25;;;;;;;;;;;27.80;39.10;;;;;;5014592;28;19912;-64
2023/04/06 11:01:50;;;;;;;;;;;27.60;39.20;;;;;;4996645;28;19910;-63
2023/04/06 11:04:17;;;;;;;;;;;27.70;38.80;;;;;;4996622;28;19905;-64
2023/04/06 11:06:46;;;;;;;;;;;26.90;38.60;;;;;;4996643;28;20385;-64
2023/04/06 11:09:11;;;;;;;;;;;26.90;39.10;;;;;;4996541;28;19912;-63
2023/04/06 11:11:38;;;;;;;;;;;25.90;39.10;;;;;;5014423;28;19906;-65
2023/04/06 11:14:04;;;;;;;;;;;23.00;40.80;;;;;;4996744;28;19905;-67
2023/04/06 11:16:30;;;;;;;;;;;21.40;43.50;;;;;;5014090;28;20020;-68
2023/04/06 11:18:59;;;;;;;;;;;20.30;44.80;;;;;;5014475;28;19905;-70
2023/04/06 11:21:32;;;;;;;;;;;18.60;48.60;;;;;;5014656;28;19925;-67
2023/04/06 11:24:07;;;;;;;;;;;17.30;47.80;;;;;;5014869;28;20289;-69
2023/04/06 11:26:36;;;;;;;;;;;16.70;49.50;;;;;;4996753;28;19916;-69
2023/04/06 11:29:02;;;;;;;;;;;16.10;50.50;;;;;;5014337;28;20382;-67
2023/04/06 11:31:28;;;;;;;;;;;16.10;50.70;;;;;;4996900;28;19933;-68
2023/04/06 11:33:56;;;;;;;;;;;16.30;50.50;;;;;;5001189;28;19913;-68
2023/04/06 11:36:22;;;;;;;;;;;16.30;50.50;;;;;;4994899;28;19906;-68
2023/04/06 11:38:47;;;;;;;;;;;15.90;50.50;;;;;;4995051;28;20381;-68
2023/04/06 11:41:13;;;;;;;;;;;15.60;51.20;;;;;;4977412;28;19913;-67
2023/04/06 11:43:45;;;;;;;;;;;14.70;52.50;;;;;;4977590;28;19967;-68
2023/04/06 11:46:16;;;;;;;;;;;14.80;52.40;;;;;;5012031;28;19910;-68
2023/04/06 11:48:46;;;;;;;;;;;15.30;52.50;;;;;;5015104;28;19955;-68
2023/04/06 11:51:11;;;;;;;;;;;15.60;51.90;;;;;;4997527;28;19953;-68
2023/04/06 11:53:43;;;;;;;;;;;15.40;51.80;;;;;;5014610;28;19905;-66
2023/04/06 11:56:09;;;;;;;;;;;15.50;53.20;;;;;;5014205;28;19933;-67
2023/04/06 11:58:34;;;;;;;;;;;15.40;51.20;;;;;;5014873;28;19956;-68
2023/04/06 12:01:03;;;;;;;;;;;15.50;51.20;;;;;;5015012;28;19999;-68
2023/04/06 12:03:29;;;;;;;;;;;15.80;51.50;;;;;;5016325;28;19927;-64
2023/04/06 12:05:54;;;;;;;;;;;16.10;51.50;;;;;;5016591;28;20330;-68
2023/04/06 12:08:25;;;;;;;;;;;16.30;50.90;;;;;;5017999;28;19913;-67
2023/04/06 12:10:50;;;;;;;;;;;16.60;50.10;;;;;;5018522;28;20321;-68
2023/04/06 12:13:16;;;;;;;;;;;16.50;50.00;;;;;;5016623;28;19909;-65
2023/04/06 12:15:41;;;;;;;;;;;16.30;49.70;;;;;;5000168;28;19910;-65
2023/04/06 12:18:07;;;;;;;;;;;16.20;49.80;;;;;;5017059;28;19912;-66
2023/04/06 12:20:32;;;;;;;;;;;16.30;49.70;;;;;;5017007;28;20374;-66
2023/04/06 12:22:58;;;;;;;;;;;16.30;50.00;;;;;;5017102;28;19917;-66
2023/04/06 12:25:23;;;;;;;;;;;16.20;50.30;;;;;;4999869;28;19909;-68
2023/04/06 12:27:49;;;;;;;;;;;16.30;50.90;;;;;;5013070;28;19913;-66
2023/04/06 12:30:15;;;;;;;;;;;15.90;50.80;;;;;;5009668;28;19913;-66
2023/04/06 12:32:40;;;;;;;;;;;15.80;51.20;;;;;;4998280;28;19912;-68
2023/04/06 12:35:08;;;;;;;;;;;15.80;51.30;;;;;;4997106;28;19905;-67
2023/04/06 12:37:34;;;;;;;;;;;16.00;50.50;;;;;;4997314;28;19933;-65
2023/04/06 12:40:00;;;;;;;;;;;16.10;49.50;;;;;;4998635;28;20417;-66
2023/04/06 12:42:26;;;;;;;;;;;15.80;49.60;;;;;;5016978;28;19905;-63
2023/04/06 12:44:51;;;;;;;;;;;15.90;49.30;;;;;;5016997;28;19909;-64
2023/04/06 12:47:17;;;;;;;;;;;15.80;49.50;;;;;;5016656;28;20310;-66
2023/04/06 12:49:43;;;;;;;;;;;15.70;49.80;;;;;;5016541;28;19912;-65
2023/04/06 12:52:09;;;;;;;;;;;15.70;50.10;;;;;;5017488;28;19906;-64
2023/04/06 12:54:35;;;;;;;;;;;15.50;48.30;;;;;;5017431;28;20357;-65
2023/04/06 12:57:01;;;;;;;;;;;15.60;48.80;;;;;;5018634;28;19913;-67
2023/04/06 12:59:26;;;;;;;;;;;15.60;49.20;;;;;;5018366;28;19913;-65
2023/04/06 13:01:52;;;;;;;;;;;15.70;49.20;;;;;;5017998;28;19905;-65
2023/04/06 13:04:18;;;;;;;;;;;15.50;49.30;;;;;;5017884;28;20398;-67
2023/04/06 13:06:43;;;;;;;;;;;15.30;49.00;;;;;;5018369;28;19913;-69
2023/04/06 13:09:09;;;;;;;;;;;15.20;49.20;;;;;;4991300;28;19914;-67
2023/04/06 13:11:34;;;;;;;;;;;15.30;49.20;;;;;;5013085;28;19906;-67
2023/04/06 13:14:00;;;;;;;;;;;15.40;48.40;;;;;;4999049;28;19910;-66
2023/04/06 13:16:25;;;;;;;;;;;15.50;48.40;;;;;;5054104;22;20385;-70
2023/04/06 13:18:51;;;;;;;;;;;15.70;48.80;;;;;;5034736;28;20296;-71
2023/04/06 13:21:16;;;;;;;;;;;15.70;47.20;;;;;;5035117;28;20427;-70
2023/04/06 13:23:42;;;;;;;;;;;15.90;47.30;;;;;;5017731;28;19905;-70
2023/04/06 13:26:08;;;;;;;;;;;16.00;46.40;;;;;;5029519;28;19948;-70
2023/04/06 13:28:34;;;;;;;;;;;15.70;46.70;;;;;;5036329;28;19904;-70
2023/04/06 13:31:01;;;;;;;;;;;15.70;46.50;;;;;;5034924;28;19904;-70
2023/04/06 13:33:26;;;;;;;;;;;15.90;46.70;;;;;;5041696;28;19905;-71
2023/04/06 13:35:52;;;;;;;;;;;16.10;46.70;;;;;;5039212;28;19935;-70
2023/04/06 13:38:17;;;;;;;;;;;16.10;45.80;;;;;;5027371;28;19925;-70
2023/04/06 13:40:43;;;;;;;;;;;16.20;45.60;;;;;;5024458;28;19937;-69
2023/04/06 13:43:10;;;;;;;;;;;15.80;45.10;;;;;;5020290;28;19914;-70
2023/04/06 13:45:36;;;;;;;;;;;15.80;45.90;;;;;;5007548;28;20046;-71
2023/04/06 13:48:02;;;;;;;;;;;16.10;46.00;;;;;;4998882;28;19906;-70
2023/04/06 13:50:28;;;;;;;;;;;16.00;46.20;;;;;;5015221;28;19932;-70
2023/04/06 13:52:53;;;;;;;;;;;15.90;46.30;;;;;;5015262;28;19905;-68
2023/04/06 13:55:18;;;;;;;;;;;16.00;45.80;;;;;;5015298;28;20377;-68
2023/04/06 13:57:44;;;;;;;;;;;16.20;46.10;;;;;;5015214;28;19912;-69
2023/04/06 14:00:12;;;;;;;;;;;16.20;46.90;;;;;;5014117;28;20327;-69
2023/04/06 14:02:38;;;;;;;;;;;16.10;47.40;;;;;;5014186;28;19912;-69
2023/04/06 14:05:03;;;;;;;;;;;16.10;47.10;;;;;;5013166;28;19909;-70
2023/04/06 14:07:29;;;;;;;;;;;16.00;47.10;;;;;;5015406;28;19960;-70
2023/04/06 14:09:55;;;;;;;;;;;15.80;47.20;;;;;;5016886;28;19909;-70
2023/04/06 14:12:20;;;;;;;;;;;15.90;47.00;;;;;;5036287;28;19905;-71
2023/04/06 14:14:46;;;;;;;;;;;15.90;47.20;;;;;;5035568;28;19905;-69
2023/04/06 14:17:11;;;;;;;;;;;16.00;47.70;;;;;;5016500;28;19959;-69
2023/04/06 14:19:37;;;;;;;;;;;16.00;48.80;;;;;;5014619;28;20034;-70